Time;durP1;ratioP1;P1;durP2;ratioP2;P2;SDS_P1;SDS_P2;PMS_P1;PMS_P2;Temp;Humidity;BMP_temperature;BMP_pressure;BME280_temperature;BME280_humidity;BME280_pressure;Samples;Min_cycle;Max_cycle;Signal;HPM_P1;HPM_P2
2023/06/30 00:01:04;;;;;;;;;;;19.60;99.90;;;;;;21166357;28;19978;-74
2023/06/30 00:11:06;;;;;;;;;;;19.80;99.90;;;;;;21165967;28;20378;-75
2023/06/30 00:21:06;;;;;;;;;;;19.30;99.90;;;;;;21151383;28;19915;-75
2023/06/30 00:31:07;;;;;;;;;;;19.40;99.90;;;;;;21160885;28;19964;-74
2023/06/30 00:41:08;;;;;;;;;;;19.20;99.90;;;;;;21162839;28;20429;-75
2023/06/30 00:51:09;;;;;;;;;;;19.10;99.90;;;;;;21144260;28;19957;-74
2023/06/30 01:01:13;;;;;;;;;;;19.00;99.90;;;;;;21161557;28;19916;-75
2023/06/30 01:11:14;;;;;;;;;;;19.10;99.90;;;;;;21160979;28;20382;-75
2023/06/30 01:21:15;;;;;;;;;;;18.90;99.90;;;;;;21160158;28;19985;-74
2023/06/30 01:31:17;;;;;;;;;;;18.50;99.90;;;;;;21159709;28;20362;-74
2023/06/30 01:41:18;;;;;;;;;;;18.40;99.90;;;;;;21139877;28;20002;-74
2023/06/30 01:51:19;;;;;;;;;;;18.20;99.90;;;;;;21158691;28;19911;-74
2023/06/30 02:01:20;;;;;;;;;;;18.30;99.90;;;;;;21123349;28;20006;-74
2023/06/30 02:11:20;;;;;;;;;;;18.60;99.90;;;;;;21134818;28;20370;-74
2023/06/30 02:21:22;;;;;;;;;;;18.30;99.90;;;;;;21157270;28;19916;-74
2023/06/30 02:31:23;;;;;;;;;;;18.10;99.90;;;;;;21121663;28;19912;-74
2023/06/30 02:41:23;;;;;;;;;;;18.20;99.90;;;;;;21156340;28;19958;-74
2023/06/30 02:51:24;;;;;;;;;;;18.40;99.90;;;;;;21156206;28;19915;-74
2023/06/30 03:01:25;;;;;;;;;;;18.30;99.90;;;;;;21152934;28;19915;-74
2023/06/30 03:11:26;;;;;;;;;;;18.40;99.90;;;;;;21151944;28;19919;-74
2023/06/30 03:21:27;;;;;;;;;;;18.50;99.90;;;;;;21170384;27;19915;-75
2023/06/30 03:31:28;;;;;;;;;;;18.30;99.90;;;;;;21197790;27;19912;-74
2023/06/30 03:41:30;;;;;;;;;;;18.20;99.90;;;;;;21149090;28;19915;-74
2023/06/30 03:51:31;;;;;;;;;;;18.20;99.90;;;;;;21190246;27;20430;-74
2023/06/30 04:01:33;;;;;;;;;;;18.10;99.90;;;;;;21199897;27;19915;-74
2023/06/30 04:11:34;;;;;;;;;;;18.40;99.90;;;;;;21157138;27;19912;-74
2023/06/30 04:21:34;;;;;;;;;;;18.50;99.90;;;;;;21149987;27;19916;-74
2023/06/30 04:31:35;;;;;;;;;;;18.60;99.90;;;;;;21142488;28;20381;-76
2023/06/30 04:41:36;;;;;;;;;;;18.20;99.90;;;;;;21150280;28;19926;-77
2023/06/30 04:51:37;;;;;;;;;;;18.20;99.90;;;;;;21147667;28;19915;-77
2023/06/30 05:01:37;;;;;;;;;;;18.20;99.90;;;;;;21153600;27;19922;-77
2023/06/30 05:11:38;;;;;;;;;;;18.10;99.90;;;;;;21156752;27;20032;-77
2023/06/30 05:21:39;;;;;;;;;;;18.00;99.90;;;;;;21156010;28;19916;-77
2023/06/30 05:31:40;;;;;;;;;;;17.90;99.90;;;;;;21158269;27;19912;-77
2023/06/30 05:41:41;;;;;;;;;;;17.90;99.90;;;;;;21158040;28;19998;-77
2023/06/30 05:51:41;;;;;;;;;;;17.80;99.90;;;;;;21171950;27;20543;-78
2023/06/30 06:01:42;;;;;;;;;;;17.80;99.90;;;;;;21146855;28;20038;-78
2023/06/30 06:11:43;;;;;;;;;;;17.60;99.90;;;;;;21151501;28;20050;-77
2023/06/30 06:21:44;;;;;;;;;;;17.60;99.90;;;;;;21181755;27;19994;-75
2023/06/30 06:31:45;;;;;;;;;;;17.50;99.90;;;;;;21177243;28;20010;-75
2023/06/30 06:41:46;;;;;;;;;;;17.50;99.90;;;;;;21166266;28;19941;-76
2023/06/30 06:51:50;;;;;;;;;;;17.70;99.90;;;;;;21231177;27;19911;-74
2023/06/30 07:01:51;;;;;;;;;;;17.90;99.90;;;;;;21213168;27;19962;-72
2023/06/30 07:11:52;;;;;;;;;;;18.00;99.90;;;;;;21170244;28;19945;-74
2023/06/30 07:21:52;;;;;;;;;;;18.10;99.90;;;;;;21169844;28;19916;-74
2023/06/30 07:31:53;;;;;;;;;;;18.10;99.90;;;;;;21183152;27;19919;-74
2023/06/30 07:41:54;;;;;;;;;;;18.10;99.90;;;;;;21169131;28;19922;-74
2023/06/30 07:51:55;;;;;;;;;;;18.20;99.90;;;;;;21168498;28;19956;-74
2023/06/30 08:01:55;;;;;;;;;;;18.30;99.90;;;;;;21168691;28;19915;-74
2023/06/30 08:11:57;;;;;;;;;;;18.30;99.90;;;;;;21158243;28;19963;-74
2023/06/30 08:21:57;;;;;;;;;;;17.90;99.90;;;;;;21167238;28;19922;-74
2023/06/30 08:31:58;;;;;;;;;;;18.00;99.90;;;;;;21165563;28;19912;-74
2023/06/30 08:41:59;;;;;;;;;;;18.20;99.90;;;;;;21165664;28;19923;-74
2023/06/30 08:52:00;;;;;;;;;;;18.30;99.90;;;;;;21162187;28;19968;-74
2023/06/30 09:02:02;;;;;;;;;;;18.30;99.90;;;;;;21174206;27;19919;-75
2023/06/30 09:12:03;;;;;;;;;;;18.50;99.90;;;;;;21161516;28;19915;-74
2023/06/30 09:22:05;;;;;;;;;;;18.70;99.90;;;;;;21149821;28;19923;-74
2023/06/30 09:32:05;;;;;;;;;;;19.60;99.90;;;;;;21159761;28;19918;-75
2023/06/30 09:42:14;;;;;;;;;;;20.20;99.90;;;;;;21159165;28;20378;-74
2023/06/30 09:52:22;;;;;;;;;;;20.70;99.90;;;;;;21158887;28;19912;-75
2023/06/30 10:02:22;;;;;;;;;;;20.90;99.90;;;;;;21160605;28;19923;-74
2023/06/30 10:12:24;;;;;;;;;;;21.00;99.90;;;;;;21175655;28;19911;-74
2023/06/30 10:22:24;;;;;;;;;;;21.60;99.90;;;;;;21168138;28;19916;-75
2023/06/30 10:32:25;;;;;;;;;;;21.40;99.90;;;;;;21174276;28;19939;-74
2023/06/30 10:42:26;;;;;;;;;;;20.60;99.90;;;;;;21173367;28;20113;-74
2023/06/30 10:52:27;;;;;;;;;;;20.90;99.90;;;;;;21167353;28;19923;-75
2023/06/30 11:02:30;;;;;;;;;;;20.30;99.90;;;;;;21170408;28;19961;-75
2023/06/30 11:12:50;;;;;;;;;;;20.60;99.90;;;;;;21169903;28;20335;-75
2023/06/30 11:22:54;;;;;;;;;;;21.00;99.90;;;;;;21152152;27;20302;-74
2023/06/30 11:32:57;;;;;;;;;;;20.60;99.90;;;;;;21170771;27;19951;-74
2023/06/30 11:42:59;;;;;;;;;;;20.00;99.90;;;;;;21162612;27;19916;-75
2023/06/30 11:53:02;;;;;;;;;;;20.40;99.90;;;;;;21167608;28;19919;-76
2023/06/30 12:03:04;;;;;;;;;;;20.90;99.90;;;;;;21168745;28;19969;-75
2023/06/30 12:13:08;;;;;;;;;;;21.00;99.90;;;;;;21166330;28;20377;-75
2023/06/30 12:23:08;;;;;;;;;;;22.10;99.90;;;;;;21166023;28;19919;-75
2023/06/30 12:33:10;;;;;;;;;;;22.20;99.90;;;;;;21163449;28;20049;-75
2023/06/30 12:43:10;;;;;;;;;;;21.90;99.90;;;;;;21164037;28;19916;-74
2023/06/30 12:53:11;;;;;;;;;;;21.70;99.90;;;;;;21164186;28;19912;-75
2023/06/30 13:03:12;;;;;;;;;;;22.10;99.90;;;;;;21138758;28;20344;-75
2023/06/30 13:13:12;;;;;;;;;;;22.90;99.90;;;;;;21146177;28;19919;-75
2023/06/30 13:23:13;;;;;;;;;;;22.40;99.90;;;;;;21160255;28;20290;-75
2023/06/30 13:33:15;;;;;;;;;;;22.40;99.90;;;;;;21159059;28;20212;-75
2023/06/30 13:43:17;;;;;;;;;;;21.30;99.90;;;;;;21153739;28;19962;-75
2023/06/30 13:53:17;;;;;;;;;;;21.30;99.90;;;;;;21146999;27;19962;-75
2023/06/30 14:03:18;;;;;;;;;;;21.00;99.90;;;;;;21156191;28;20443;-75
2023/06/30 14:13:18;;;;;;;;;;;20.60;99.90;;;;;;21172245;28;19912;-75
2023/06/30 14:23:19;;;;;;;;;;;20.00;99.90;;;;;;21163082;28;19923;-75
2023/06/30 14:33:20;;;;;;;;;;;19.80;99.90;;;;;;21141442;28;19912;-75
2023/06/30 14:43:23;;;;;;;;;;;20.00;99.90;;;;;;21156125;28;20450;-74
2023/06/30 14:53:25;;;;;;;;;;;20.60;99.90;;;;;;21165668;28;19937;-75
2023/06/30 15:03:25;;;;;;;;;;;20.60;99.90;;;;;;21171000;28;19915;-75
2023/06/30 15:13:26;;;;;;;;;;;20.60;99.90;;;;;;21170664;28;19922;-75
2023/06/30 15:23:27;;;;;;;;;;;20.50;99.90;;;;;;21149837;28;19927;-74
2023/06/30 15:33:27;;;;;;;;;;;19.70;99.90;;;;;;21168121;28;19912;-75
2023/06/30 15:43:28;;;;;;;;;;;19.30;99.90;;;;;;21167583;28;19923;-75
2023/06/30 15:53:29;;;;;;;;;;;18.90;99.90;;;;;;21189408;27;19912;-75
2023/06/30 16:03:29;;;;;;;;;;;18.90;99.90;;;;;;21198328;27;19925;-75
2023/06/30 16:13:30;;;;;;;;;;;18.90;99.90;;;;;;21160730;28;20328;-75
2023/06/30 16:23:31;;;;;;;;;;;18.70;99.90;;;;;;21164655;28;19923;-75
2023/06/30 16:33:32;;;;;;;;;;;18.40;99.90;;;;;;21163556;28;19918;-75
2023/06/30 16:43:32;;;;;;;;;;;18.60;99.90;;;;;;21162456;27;19923;-75
2023/06/30 16:53:33;;;;;;;;;;;18.70;99.90;;;;;;21178383;27;20006;-75
2023/06/30 17:03:34;;;;;;;;;;;18.50;99.90;;;;;;21163747;27;19915;-75
2023/06/30 17:13:35;;;;;;;;;;;18.40;99.90;;;;;;21152750;27;20309;-75
2023/06/30 17:23:36;;;;;;;;;;;18.60;99.90;;;;;;21186684;27;19916;-75
2023/06/30 17:33:36;;;;;;;;;;;18.30;99.90;;;;;;21200488;27;19918;-75
2023/06/30 17:43:37;;;;;;;;;;;18.30;99.90;;;;;;21192651;27;19920;-74
2023/06/30 17:53:37;;;;;;;;;;;18.20;99.90;;;;;;21187333;27;20019;-75
2023/06/30 18:03:38;;;;;;;;;;;18.20;99.90;;;;;;21194434;27;20375;-74
2023/06/30 18:13:39;;;;;;;;;;;18.20;99.90;;;;;;21193182;28;19956;-75
2023/06/30 18:23:41;;;;;;;;;;;18.00;99.90;;;;;;21201190;27;19922;-75
2023/06/30 18:33:41;;;;;;;;;;;17.90;99.90;;;;;;21230084;27;20290;-76
2023/06/30 18:43:42;;;;;;;;;;;17.80;99.90;;;;;;21172698;27;19915;-75
2023/06/30 18:53:43;;;;;;;;;;;17.70;99.90;;;;;;21158271;28;19998;-75
2023/06/30 19:03:44;;;;;;;;;;;17.70;99.90;;;;;;21164734;28;19920;-76
2023/06/30 19:13:44;;;;;;;;;;;17.70;99.90;;;;;;21170488;28;19935;-75
2023/06/30 19:23:45;;;;;;;;;;;17.50;99.90;;;;;;21169913;28;19915;-76
2023/06/30 19:33:46;;;;;;;;;;;17.50;99.90;;;;;;21168541;28;19916;-76
2023/06/30 19:43:46;;;;;;;;;;;17.50;99.90;;;;;;21154862;28;19958;-75
2023/06/30 19:53:47;;;;;;;;;;;17.50;99.90;;;;;;21161609;28;19915;-75
2023/06/30 20:03:48;;;;;;;;;;;17.40;99.90;;;;;;21154882;28;20401;-76
2023/06/30 20:13:48;;;;;;;;;;;17.40;99.90;;;;;;21157075;28;20308;-76
2023/06/30 20:23:49;;;;;;;;;;;17.40;99.90;;;;;;21151333;28;19916;-75
2023/06/30 20:33:50;;;;;;;;;;;17.30;99.90;;;;;;21164094;28;19966;-75
2023/06/30 20:43:50;;;;;;;;;;;17.30;99.90;;;;;;21162890;28;19915;-76
2023/06/30 20:53:51;;;;;;;;;;;17.20;99.90;;;;;;21143647;28;20289;-76
2023/06/30 21:03:52;;;;;;;;;;;17.20;99.90;;;;;;21157433;28;19955;-76
2023/06/30 21:13:52;;;;;;;;;;;17.10;99.90;;;;;;21150331;28;19911;-75
2023/06/30 21:23:53;;;;;;;;;;;17.10;99.90;;;;;;21143053;28;20006;-75
2023/06/30 21:33:54;;;;;;;;;;;17.10;99.90;;;;;;21155677;28;20455;-75
2023/06/30 21:43:54;;;;;;;;;;;17.10;99.90;;;;;;21156675;28;19985;-76
2023/06/30 21:54:01;;;;;;;;;;;17.00;99.90;;;;;;21156028;28;19951;-75
2023/06/30 22:04:02;;;;;;;;;;;17.10;99.90;;;;;;21152022;28;19950;-75
2023/06/30 22:14:03;;;;;;;;;;;17.10;99.90;;;;;;21132020;28;19935;-75
2023/06/30 22:24:04;;;;;;;;;;;17.10;99.90;;;;;;21131747;28;19923;-76
2023/06/30 22:34:04;;;;;;;;;;;17.00;99.90;;;;;;21151126;28;19916;-76
2023/06/30 22:44:05;;;;;;;;;;;16.90;99.90;;;;;;21158165;27;19931;-76
2023/06/30 22:54:05;;;;;;;;;;;16.90;99.90;;;;;;21139697;28;19943;-77
2023/06/30 23:04:06;;;;;;;;;;;16.90;99.90;;;;;;21189856;28;19915;-76
2023/06/30 23:14:07;;;;;;;;;;;16.90;99.90;;;;;;21205528;27;20597;-76
2023/06/30 23:24:10;;;;;;;;;;;16.80;99.90;;;;;;21183764;27;20018;-76
2023/06/30 23:34:13;;;;;;;;;;;16.80;99.90;;;;;;21168729;27;19941;-76
2023/06/30 23:44:14;;;;;;;;;;;16.80;99.90;;;;;;21144454;27;19916;-76
2023/06/30 23:54:14;;;;;;;;;;;16.80;99.90;;;;;;21184020;27;20357;-76
